Bom Despacho, Brazil
Current Conditions -  °F | °C
As of 2:00 PM on Saturday 20 Dec 2014 (Local Time) from SBPR Reporting Station
Broken Clouds Broken Clouds  
Wind Chill: 75°   Ceiling: 3000
Heat Index: 75°   Visibility: 6mi
Dew Point: 66°   Wind: 12mph
Humidity: 73%   Direction: 300°WNW
Pressure: 30"   Gusts: NA
Location:  19.73°S, 45.26°W
Report Text: SBPR 201600Z 30010KT 9999 BKN030 FEW035TCU 24/19 Q1016
Loading
Personal Weather Stations






























Interactive Weather Map New forecast layout! Learn more

10-Day Weather Forecast

Advertisements
Track Severe Weather on mobile